createdAt,value
2023-02-12T00:00:49.263Z,11.10
2023-02-12T00:03:15.821Z,11.60
2023-02-12T00:05:42.127Z,10.60
2023-02-12T00:08:11.267Z,11.60
2023-02-12T00:10:42.885Z,11.48
2023-02-12T00:13:10.263Z,10.70
2023-02-12T00:15:41.235Z,11.10
2023-02-12T00:18:07.710Z,11.43
2023-02-12T00:20:34.380Z,11.35
2023-02-12T00:23:00.706Z,11.80
2023-02-12T00:25:27.158Z,11.88
2023-02-12T00:27:53.456Z,11.52
2023-02-12T00:30:20.013Z,11.73
2023-02-12T00:32:46.480Z,11.30
2023-02-12T00:35:13.268Z,11.07
2023-02-12T00:37:39.573Z,11.02
2023-02-12T00:40:06.905Z,11.25
2023-02-12T00:42:33.201Z,11.65
2023-02-12T00:44:59.573Z,11.32
2023-02-12T00:47:25.885Z,10.82
2023-02-12T00:49:52.184Z,11.50
2023-02-12T00:52:18.540Z,10.38
2023-02-12T00:54:44.853Z,11.35
2023-02-12T00:57:11.265Z,11.68
2023-02-12T00:59:40.007Z,11.77
2023-02-12T01:02:06.386Z,10.48
2023-02-12T01:04:32.880Z,11.35
2023-02-12T01:06:59.227Z,11.43
2023-02-12T01:09:25.678Z,10.77
2023-02-12T01:11:52.005Z,11.57
2023-02-12T01:14:18.456Z,10.50
2023-02-12T01:16:44.841Z,10.93
2023-02-12T01:19:12.701Z,11.10
2023-02-12T01:21:39.095Z,11.35
2023-02-12T01:24:05.716Z,10.93
2023-02-12T01:26:32.766Z,11.50
2023-02-12T01:29:02.002Z,11.18
2023-02-12T01:31:33.845Z,10.68
2023-02-12T01:34:00.836Z,11.20
2023-02-12T01:36:29.660Z,11.68
2023-02-12T01:38:57.880Z,10.43
2023-02-12T01:41:30.200Z,10.77
2023-02-12T01:44:22.216Z,10.98
2023-02-12T01:46:54.692Z,11.50
2023-02-12T01:49:32.147Z,11.23
2023-02-12T01:52:04.808Z,11.32
2023-02-12T01:54:33.545Z,11.70
2023-02-12T01:57:01.750Z,10.70
2023-02-12T01:59:29.708Z,11.02
2023-02-12T02:01:56.147Z,10.48
2023-02-12T02:04:27.439Z,11.75
2023-02-12T02:06:57.984Z,12.82
2023-02-12T02:09:25.472Z,10.93
2023-02-12T02:12:11.248Z,10.85
2023-02-12T02:14:38.805Z,11.15
2023-02-12T02:17:24.026Z,11.48
2023-02-12T02:19:56.311Z,11.57
2023-02-12T02:22:43.473Z,10.43
2023-02-12T02:25:28.518Z,10.82
2023-02-12T02:28:42.736Z,11.55
2023-02-12T02:31:38.746Z,10.73
2023-02-12T02:34:38.407Z,11.38
2023-02-12T02:37:19.787Z,11.65
2023-02-12T02:39:52.309Z,10.40
2023-02-12T02:42:27.553Z,11.18
2023-02-12T02:44:57.601Z,12.18
2023-02-12T02:47:31.193Z,11.10
2023-02-12T02:50:02.181Z,11.73
2023-02-12T02:52:41.367Z,11.75
2023-02-12T02:55:10.759Z,11.52
2023-02-12T02:57:52.489Z,12.60
2023-02-12T03:00:28.375Z,10.98
2023-02-12T03:03:02.378Z,12.77
2023-02-12T03:05:33.205Z,12.80
2023-02-12T03:08:07.623Z,12.18
2023-02-12T03:10:39.601Z,12.38
2023-02-12T03:13:23.335Z,12.13
2023-02-12T03:15:52.755Z,13.23
2023-02-12T03:18:44.671Z,12.57
2023-02-12T03:21:18.097Z,12.10
2023-02-12T03:23:54.192Z,12.32
2023-02-12T03:26:32.839Z,12.20
2023-02-12T03:28:59.249Z,12.10
2023-02-12T03:31:44.593Z,12.50
2023-02-12T03:34:44.943Z,13.38
2023-02-12T03:37:18.142Z,12.02
2023-02-12T03:39:56.739Z,13.20
2023-02-12T03:42:44.452Z,13.35
2023-02-12T03:45:34.266Z,13.73
2023-02-12T03:48:19.321Z,12.45
2023-02-12T03:50:57.049Z,11.98
2023-02-12T03:53:26.299Z,12.32
2023-02-12T03:56:07.203Z,12.15
2023-02-12T03:58:36.843Z,12.18
2023-02-12T04:01:03.964Z,14.43
2023-02-12T04:03:31.506Z,13.75
2023-02-12T04:05:57.919Z,11.93
2023-02-12T04:08:27.010Z,13.63
2023-02-12T04:11:20.942Z,13.93
2023-02-12T04:14:05.907Z,12.93
2023-02-12T04:16:45.102Z,12.38
2023-02-12T04:19:16.581Z,13.18
2023-02-12T04:24:38.751Z,13.15
2023-02-12T04:27:22.703Z,14.40
2023-02-12T04:30:00.093Z,12.60
2023-02-12T04:32:29.987Z,12.95
2023-02-12T04:35:04.195Z,13.23
2023-02-12T04:37:38.047Z,13.15
2023-02-12T04:40:08.042Z,13.63
2023-02-12T04:42:48.557Z,12.90
2023-02-12T04:45:22.399Z,13.40
2023-02-12T04:47:48.760Z,13.95
2023-02-12T04:50:15.236Z,12.27
2023-02-12T04:52:41.561Z,13.43
2023-02-12T04:55:08.119Z,14.18
2023-02-12T04:57:34.461Z,12.43
2023-02-12T05:00:00.889Z,13.52
2023-02-12T05:02:27.214Z,12.77
2023-02-12T05:04:53.663Z,12.63
2023-02-12T05:07:20.007Z,13.80
2023-02-12T05:09:46.282Z,12.90
2023-02-12T05:12:12.695Z,13.35
2023-02-12T05:14:39.067Z,12.90
2023-02-12T05:17:05.373Z,13.38
2023-02-12T05:19:31.847Z,12.68
2023-02-12T05:21:58.148Z,12.55
2023-02-12T05:24:24.465Z,13.85
2023-02-12T05:26:51.486Z,13.85
2023-02-12T05:29:18.451Z,13.70
2023-02-12T05:31:45.074Z,12.95
2023-02-12T05:34:13.223Z,13.55
2023-02-12T05:36:39.925Z,13.13
2023-02-12T05:39:07.294Z,13.52
2023-02-12T05:41:35.008Z,13.38
2023-02-12T05:44:02.663Z,13.18
2023-02-12T05:46:29.010Z,13.60
2023-02-12T05:48:55.312Z,13.20
2023-02-12T05:51:24.993Z,12.73
2023-02-12T05:54:03.544Z,13.68
2023-02-12T05:56:32.299Z,13.15
2023-02-12T05:59:03.254Z,12.73
2023-02-12T06:01:32.465Z,12.35
2023-02-12T06:04:00.732Z,12.55
2023-02-12T06:06:28.495Z,13.30
2023-02-12T06:08:55.494Z,12.95
2023-02-12T06:11:22.567Z,12.82
2023-02-12T06:13:49.431Z,13.35
2023-02-12T06:16:20.824Z,13.40
2023-02-12T06:18:47.385Z,13.77
2023-02-12T06:21:13.996Z,13.65
2023-02-12T06:23:40.473Z,13.80
2023-02-12T06:26:07.008Z,13.40
2023-02-12T06:28:33.436Z,14.05
2023-02-12T06:30:59.923Z,13.48
2023-02-12T06:33:26.314Z,12.50
2023-02-12T06:35:52.649Z,13.40
2023-02-12T06:38:18.975Z,12.13
2023-02-12T06:40:45.368Z,13.80
2023-02-12T06:43:11.934Z,12.43
2023-02-12T06:45:38.284Z,13.98
2023-02-12T06:48:04.751Z,12.93
2023-02-12T06:50:31.141Z,12.88
2023-02-12T06:52:59.206Z,12.85
2023-02-12T06:55:25.689Z,13.57
2023-02-12T06:57:52.019Z,13.52
2023-02-12T07:00:18.892Z,13.07
2023-02-12T07:02:45.198Z,13.60
2023-02-12T07:05:11.519Z,13.45
2023-02-12T07:07:37.841Z,12.63
2023-02-12T07:10:04.304Z,12.82
2023-02-12T07:12:30.698Z,13.05
2023-02-12T07:14:57.036Z,12.85
2023-02-12T07:17:23.318Z,11.80
2023-02-12T07:19:49.624Z,11.65
2023-02-12T07:22:16.242Z,12.75
2023-02-12T07:24:43.440Z,12.45
2023-02-12T07:27:09.760Z,12.02
2023-02-12T07:29:36.065Z,12.98
2023-02-12T07:32:02.428Z,12.52
2023-02-12T07:34:28.851Z,12.18
2023-02-12T07:36:55.158Z,12.57
2023-02-12T07:39:21.621Z,14.02
2023-02-12T07:41:47.930Z,12.68
2023-02-12T07:44:14.299Z,13.65
2023-02-12T07:46:44.962Z,12.43
2023-02-12T07:49:15.524Z,12.77
2023-02-12T07:51:41.912Z,12.30
2023-02-12T07:54:09.573Z,11.95
2023-02-12T07:56:37.534Z,12.70
2023-02-12T07:59:06.584Z,11.65
2023-02-12T08:01:35.688Z,12.23
2023-02-12T08:04:13.743Z,12.82
2023-02-12T08:06:45.566Z,12.38
2023-02-12T08:09:14.506Z,12.13
2023-02-12T08:11:42.419Z,11.82
2023-02-12T08:14:12.032Z,12.68
2023-02-12T08:16:40.004Z,12.00
2023-02-12T08:19:16.896Z,12.02
2023-02-12T08:21:48.901Z,11.98
2023-02-12T08:24:15.271Z,13.45
2023-02-12T08:26:41.670Z,11.60
2023-02-12T08:29:14.036Z,11.65
2023-02-12T08:31:43.674Z,11.55
2023-02-12T08:34:19.602Z,12.30
2023-02-12T08:36:47.259Z,12.27
2023-02-12T08:39:14.197Z,12.55
2023-02-12T08:41:42.160Z,12.70
2023-02-12T08:44:09.612Z,12.50
2023-02-12T08:46:38.426Z,12.40
2023-02-12T08:49:09.919Z,13.68
2023-02-12T08:51:38.454Z,12.65
2023-02-12T08:54:06.921Z,12.35
2023-02-12T08:56:35.253Z,12.90
2023-02-12T08:59:04.700Z,12.45
2023-02-12T09:01:33.740Z,14.05
2023-02-12T09:04:00.595Z,14.55
2023-02-12T09:06:27.151Z,14.10
2023-02-12T09:08:54.676Z,14.75
2023-02-12T09:11:26.475Z,14.30
2023-02-12T09:13:53.064Z,14.70
2023-02-12T09:16:19.392Z,15.50
2023-02-12T09:18:45.749Z,13.57
2023-02-12T09:21:16.522Z,14.82
2023-02-12T09:23:44.230Z,14.02
2023-02-12T09:26:15.207Z,16.20
2023-02-12T09:31:14.312Z,15.52
2023-02-12T09:33:41.703Z,16.15
2023-02-12T09:36:18.566Z,14.60
2023-02-12T09:38:45.150Z,14.23
2023-02-12T09:41:26.606Z,14.57
2023-02-12T09:44:25.655Z,14.70
2023-02-12T09:47:16.454Z,13.13
2023-02-12T09:50:17.362Z,14.73
2023-02-12T09:52:44.268Z,14.85
2023-02-12T09:55:18.903Z,15.07
2023-02-12T09:57:46.285Z,14.73
2023-02-12T10:00:24.288Z,14.90
2023-02-12T10:02:53.461Z,14.57
2023-02-12T10:05:36.034Z,15.68
2023-02-12T10:08:39.193Z,19.65
2023-02-12T10:11:20.541Z,19.42
2023-02-12T10:14:02.175Z,15.68
2023-02-12T10:16:43.903Z,14.88
2023-02-12T10:19:28.321Z,13.68
2023-02-12T10:22:03.865Z,14.30
2023-02-12T10:24:41.764Z,14.65
2023-02-12T10:27:17.360Z,13.80
2023-02-12T10:29:47.274Z,14.30
2023-02-12T10:32:25.740Z,14.88
2023-02-12T10:34:53.889Z,13.57
2023-02-12T10:37:56.497Z,14.13
2023-02-12T10:40:33.888Z,13.00
2023-02-12T10:43:02.442Z,13.48
2023-02-12T10:45:39.671Z,13.38
2023-02-12T10:48:31.809Z,12.68
2023-02-12T10:51:07.388Z,13.13
2023-02-12T10:53:36.726Z,11.80
2023-02-12T10:56:13.837Z,11.82
2023-02-12T10:58:51.816Z,12.30
2023-02-12T11:01:28.429Z,11.52
2023-02-12T11:03:56.933Z,11.93
2023-02-12T11:06:29.631Z,12.35
2023-02-12T11:08:57.913Z,10.55
2023-02-12T11:11:36.981Z,9.95
2023-02-12T11:14:19.025Z,10.80
2023-02-12T11:17:01.343Z,9.35
2023-02-12T11:19:30.547Z,9.60
2023-02-12T11:22:14.487Z,9.25
2023-02-12T11:24:40.833Z,8.98
2023-02-12T11:27:20.694Z,9.38
2023-02-12T11:29:51.122Z,9.23
2023-02-12T11:32:19.593Z,8.25
2023-02-12T11:35:04.325Z,9.50
2023-02-12T11:37:33.005Z,8.70
2023-02-12T11:39:59.794Z,8.07
2023-02-12T11:42:35.330Z,9.65
2023-02-12T11:45:02.310Z,7.65
2023-02-12T11:47:32.042Z,9.00
2023-02-12T11:50:15.544Z,8.98
2023-02-12T11:52:42.590Z,10.13
2023-02-12T11:55:33.415Z,10.38
2023-02-12T11:58:17.568Z,9.85
2023-02-12T12:00:56.948Z,10.00
2023-02-12T12:03:29.664Z,10.57
2023-02-12T12:06:04.972Z,9.98
2023-02-12T12:08:48.302Z,9.85
2023-02-12T12:11:37.017Z,9.82
2023-02-12T12:14:09.578Z,10.27
2023-02-12T12:17:03.681Z,10.50
2023-02-12T12:19:53.000Z,10.45
2023-02-12T12:22:31.090Z,11.23
2023-02-12T12:25:06.870Z,10.18
2023-02-12T12:27:58.671Z,11.63
2023-02-12T12:30:50.985Z,10.30
2023-02-12T12:33:29.130Z,11.13
2023-02-12T12:36:27.415Z,10.10
2023-02-12T12:39:12.331Z,10.23
2023-02-12T12:41:50.930Z,11.15
2023-02-12T12:44:53.338Z,11.50
2023-02-12T12:47:50.463Z,10.80
2023-02-12T12:50:45.105Z,10.52
2023-02-12T12:53:17.424Z,10.52
2023-02-12T12:56:05.698Z,9.00
2023-02-12T12:58:48.491Z,9.48
2023-02-12T13:01:33.586Z,11.52
2023-02-12T13:04:30.914Z,10.63
2023-02-12T13:07:24.964Z,9.35
2023-02-12T13:10:29.061Z,11.10
2023-02-12T13:13:15.025Z,10.45
2023-02-12T13:15:48.754Z,10.43
2023-02-12T13:18:27.278Z,10.35
2023-02-12T13:21:24.298Z,10.95
2023-02-12T13:23:54.473Z,9.10
2023-02-12T13:26:52.685Z,9.90
2023-02-12T13:29:40.080Z,9.07
2023-02-12T13:32:22.091Z,10.13
2023-02-12T13:34:48.923Z,10.05
2023-02-12T13:37:19.903Z,10.88
2023-02-12T13:39:49.129Z,11.20
2023-02-12T13:42:35.535Z,10.70
2023-02-12T13:45:18.003Z,10.10
2023-02-12T13:48:05.484Z,11.30
2023-02-12T13:51:01.013Z,10.55
2023-02-12T13:53:46.238Z,10.88
2023-02-12T13:56:28.028Z,10.60
2023-02-12T13:59:00.693Z,10.30
2023-02-12T14:01:39.755Z,10.23
2023-02-12T14:04:21.303Z,11.43
2023-02-12T14:07:12.645Z,9.93
2023-02-12T14:09:49.995Z,10.52
2023-02-12T14:12:25.361Z,10.40
2023-02-12T14:14:56.863Z,10.30
2023-02-12T14:17:29.217Z,10.40
2023-02-12T14:20:15.285Z,10.60
2023-02-12T14:22:41.579Z,11.80
2023-02-12T14:25:14.163Z,10.73
2023-02-12T14:28:13.044Z,10.65
2023-02-12T14:30:40.606Z,11.23
2023-02-12T14:33:06.877Z,11.45
2023-02-12T14:35:41.289Z,10.13
2023-02-12T14:38:17.732Z,9.88
2023-02-12T14:40:46.859Z,10.48
2023-02-12T14:43:29.505Z,10.45
2023-02-12T14:45:59.797Z,9.73
2023-02-12T14:48:41.585Z,9.70
2023-02-12T14:51:17.501Z,10.65
2023-02-12T14:53:46.612Z,10.20
2023-02-12T14:56:13.304Z,9.68
2023-02-12T14:58:39.827Z,10.63
2023-02-12T15:01:07.158Z,10.48
2023-02-12T15:03:54.269Z,10.43
2023-02-12T15:06:34.752Z,10.20
2023-02-12T15:09:08.580Z,10.35
2023-02-12T15:11:58.219Z,10.48
2023-02-12T15:14:27.049Z,9.88
2023-02-12T15:17:07.016Z,10.75
2023-02-12T15:20:02.617Z,10.65
2023-02-12T15:22:39.264Z,11.88
2023-02-12T15:25:27.025Z,11.68
2023-02-12T15:28:06.943Z,11.00
2023-02-12T15:30:36.712Z,10.50
2023-02-12T15:33:07.521Z,11.70
2023-02-12T15:35:36.938Z,11.95
2023-02-12T15:38:07.394Z,11.60
2023-02-12T15:40:33.985Z,11.32
2023-02-12T15:43:04.025Z,11.88
2023-02-12T15:45:33.430Z,11.13
2023-02-12T15:48:16.803Z,12.27
2023-02-12T15:50:57.991Z,11.80
2023-02-12T15:55:52.728Z,11.48
2023-02-12T15:58:28.542Z,11.65
2023-02-12T16:01:00.523Z,10.82
2023-02-12T16:03:33.345Z,10.35
2023-02-12T16:06:02.758Z,10.20
2023-02-12T16:08:31.792Z,10.88
2023-02-12T16:10:58.561Z,11.23
2023-02-12T16:13:36.433Z,12.00
2023-02-12T16:16:14.219Z,12.43
2023-02-12T16:18:43.242Z,11.90
2023-02-12T16:21:23.119Z,12.23
2023-02-12T16:23:51.355Z,12.73
2023-02-12T16:26:24.043Z,13.25
2023-02-12T16:28:53.014Z,12.95
2023-02-12T16:31:21.863Z,12.85
2023-02-12T16:33:53.134Z,12.75
2023-02-12T16:36:19.448Z,12.13
2023-02-12T16:38:49.076Z,15.60
2023-02-12T16:41:18.233Z,14.65
2023-02-12T16:43:45.870Z,15.32
2023-02-12T16:46:13.439Z,14.50
2023-02-12T16:48:49.080Z,13.90
2023-02-12T16:51:28.389Z,15.18
2023-02-12T16:53:57.450Z,17.20
2023-02-12T16:56:26.433Z,15.18
2023-02-12T16:59:00.274Z,17.10
2023-02-12T17:01:36.870Z,20.52
2023-02-12T17:04:14.756Z,18.35
2023-02-12T17:06:41.097Z,17.10
2023-02-12T17:09:07.400Z,18.77
2023-02-12T17:11:33.720Z,19.38
2023-02-12T17:14:00.025Z,18.02
2023-02-12T17:16:31.264Z,15.50
2023-02-12T17:18:59.589Z,14.32
2023-02-12T17:21:38.148Z,15.95
2023-02-12T17:24:18.364Z,20.15
2023-02-12T17:26:44.839Z,19.55
2023-02-12T17:29:11.315Z,19.35
2023-02-12T17:31:37.996Z,22.05
2023-02-12T17:34:05.132Z,20.90
2023-02-12T17:36:31.657Z,22.23
2023-02-12T17:38:57.969Z,20.25
2023-02-12T17:41:24.403Z,17.23
2023-02-12T17:43:50.872Z,15.77
2023-02-12T17:46:19.845Z,13.65
2023-02-12T17:48:46.168Z,14.15
2023-02-12T17:51:13.695Z,13.27
2023-02-12T17:53:40.731Z,12.55
2023-02-12T17:56:13.036Z,13.30
2023-02-12T17:58:41.719Z,14.63
2023-02-12T18:01:10.289Z,15.05
2023-02-12T18:03:38.342Z,16.73
2023-02-12T18:06:05.185Z,14.95
2023-02-12T18:08:31.797Z,14.48
2023-02-12T18:10:58.690Z,14.13
2023-02-12T18:13:25.214Z,14.65
2023-02-12T18:15:51.604Z,13.85
2023-02-12T18:18:18.103Z,14.18
2023-02-12T18:20:44.443Z,14.68
2023-02-12T18:23:11.325Z,13.50
2023-02-12T18:25:42.192Z,13.95
2023-02-12T18:30:38.660Z,14.30
2023-02-12T18:33:06.006Z,14.98
2023-02-12T18:35:33.476Z,15.23
2023-02-12T18:37:59.861Z,15.70
2023-02-12T18:40:26.274Z,15.30
2023-02-12T18:42:52.643Z,15.98
2023-02-12T18:45:19.368Z,14.07
2023-02-12T18:47:45.743Z,13.35
2023-02-12T18:50:12.099Z,12.75
2023-02-12T18:52:38.479Z,13.23
2023-02-12T18:55:06.809Z,14.32
2023-02-12T18:57:33.242Z,13.70
2023-02-12T18:59:59.627Z,12.88
2023-02-12T19:02:26.060Z,13.68
2023-02-12T19:04:52.446Z,14.57
2023-02-12T19:07:18.814Z,13.80
2023-02-12T19:09:45.226Z,13.55
2023-02-12T19:12:11.578Z,14.63
2023-02-12T19:14:37.949Z,15.48
2023-02-12T19:17:04.318Z,13.20
2023-02-12T19:19:30.638Z,13.90
2023-02-12T19:21:57.025Z,14.63
2023-02-12T19:24:23.471Z,15.07
2023-02-12T19:26:53.136Z,13.82
2023-02-12T19:29:19.653Z,14.07
2023-02-12T19:31:46.737Z,15.48
2023-02-12T19:34:17.766Z,13.15
2023-02-12T19:36:44.558Z,12.60
2023-02-12T19:39:14.376Z,13.15
2023-02-12T19:41:41.348Z,12.57
2023-02-12T19:44:14.081Z,12.38
2023-02-12T19:46:40.860Z,11.63
2023-02-12T19:49:11.695Z,11.32
2023-02-12T19:51:39.409Z,11.63
2023-02-12T19:54:10.237Z,12.35
2023-02-12T19:56:37.087Z,11.35
2023-02-12T19:59:05.113Z,11.00
2023-02-12T20:01:32.209Z,10.90
2023-02-12T20:03:59.439Z,10.60
2023-02-12T20:06:29.288Z,11.35
2023-02-12T20:09:02.853Z,11.43
2023-02-12T20:11:30.933Z,11.70
2023-02-12T20:13:58.364Z,12.15
2023-02-12T20:16:31.010Z,11.93
2023-02-12T20:19:02.840Z,12.18
2023-02-12T20:21:29.249Z,10.75
2023-02-12T20:23:56.215Z,13.07
2023-02-12T20:26:23.447Z,12.32
2023-02-12T20:28:50.583Z,13.35
2023-02-12T20:31:20.600Z,12.95
2023-02-12T20:33:47.589Z,12.45
2023-02-12T20:36:14.827Z,12.77
2023-02-12T20:38:44.430Z,12.60
2023-02-12T20:41:11.772Z,12.68
2023-02-12T20:43:38.566Z,13.63
2023-02-12T20:46:12.379Z,13.93
2023-02-12T20:48:39.576Z,14.40
2023-02-12T20:51:12.149Z,13.77
2023-02-12T20:53:39.310Z,13.18
2023-02-12T20:56:11.591Z,12.65
2023-02-12T21:01:37.540Z,13.00
2023-02-12T21:04:06.465Z,13.70
2023-02-12T21:06:33.722Z,14.05
2023-02-12T21:09:00.272Z,14.85
2023-02-12T21:11:28.067Z,15.70
2023-02-12T21:14:18.530Z,14.60
2023-02-12T21:16:46.348Z,14.15
2023-02-12T21:19:16.142Z,14.60
2023-02-12T21:21:45.012Z,14.18
2023-02-12T21:24:15.085Z,13.23
2023-02-12T21:26:41.604Z,13.18
2023-02-12T21:29:08.060Z,13.95
2023-02-12T21:31:43.159Z,13.70
2023-02-12T21:34:13.430Z,12.90
2023-02-12T21:36:41.692Z,13.37
2023-02-12T21:39:11.526Z,13.43
2023-02-12T21:41:39.882Z,13.85
2023-02-12T21:44:10.222Z,14.32
2023-02-12T21:46:36.779Z,14.00
2023-02-12T21:49:04.338Z,13.80
2023-02-12T21:51:34.161Z,12.73
2023-02-12T21:54:03.500Z,14.30
2023-02-12T21:56:30.294Z,14.32
2023-02-12T21:58:58.903Z,12.85
2023-02-12T22:01:28.008Z,13.93
2023-02-12T22:03:55.174Z,12.32
2023-02-12T22:06:23.321Z,11.70
2023-02-12T22:08:49.988Z,12.68
2023-02-12T22:11:16.958Z,13.27
2023-02-12T22:13:43.446Z,12.05
2023-02-12T22:16:21.070Z,11.55
2023-02-12T22:18:49.003Z,11.77
2023-02-12T22:21:17.025Z,12.38
2023-02-12T22:23:44.764Z,11.07
2023-02-12T22:26:12.305Z,12.30
2023-02-12T22:28:41.155Z,11.25
2023-02-12T22:31:09.149Z,13.40
2023-02-12T22:33:35.529Z,11.57
2023-02-12T22:36:05.314Z,11.82
2023-02-12T22:38:36.463Z,11.02
2023-02-12T22:43:33.509Z,11.70
2023-02-12T22:46:00.030Z,12.13
2023-02-12T22:48:28.220Z,10.90
2023-02-12T22:50:56.024Z,11.40
2023-02-12T22:53:23.403Z,11.15
2023-02-12T22:55:49.887Z,10.82
2023-02-12T22:58:16.395Z,11.35
2023-02-12T23:00:43.285Z,11.85
2023-02-12T23:03:09.931Z,11.30
2023-02-12T23:05:37.348Z,11.95
2023-02-12T23:08:05.766Z,11.65
2023-02-12T23:10:32.390Z,10.73
2023-02-12T23:12:58.788Z,12.15
2023-02-12T23:15:25.133Z,11.75
2023-02-12T23:17:51.554Z,11.77
2023-02-12T23:20:18.061Z,11.07
2023-02-12T23:22:44.409Z,11.35
2023-02-12T23:25:10.928Z,12.20
2023-02-12T23:27:37.303Z,11.75
2023-02-12T23:30:04.367Z,11.52
2023-02-12T23:32:30.884Z,10.35
2023-02-12T23:34:57.311Z,11.43
2023-02-12T23:37:23.767Z,11.32
2023-02-12T23:39:50.108Z,12.10
2023-02-12T23:42:16.468Z,11.85
2023-02-12T23:44:42.770Z,11.10
2023-02-12T23:47:09.064Z,11.57
2023-02-12T23:49:36.859Z,11.32
2023-02-12T23:52:03.432Z,11.93
2023-02-12T23:54:31.487Z,11.88
2023-02-12T23:56:57.797Z,12.48
2023-02-12T23:59:25.527Z,11.60
